map of PMO home
PMO - Airport
Location
City:  Palermo, Sicily, Italy
Near (Alt.):Punta Raisi
Name:Falcone e Borsellino International Airport
Old (Alt.):Punta Raisi Airport
ICAO:LICJ
IATA:PMO

Details
Type:Airport (Aerodrome, Airfield)
Use:Public/Civil, International (customs port of entry)
Latitude:3810'33"N (38.175958)
Longitude:1305'28"E (13.091019)
Datum:WGS 1984
Elevation:65 ft (20 m)
Variation:2.95E (WMM2015 magnetic declination)
0.10 annual change
Runways:2
Longest:10912 × 197 ft (3326 × 60 m), paved

Time
Time Zone:UTC+1 (DST+2)
Local Time:

Weather
METAR:LICJ 140920Z 20013KT 9999 FEW040 15/06 Q1022
TAF:LICJ 140500Z 1406/1506 25016KT 9999 SCT025

Related Locations
Nearby:
Farthest:CHT: 11805 mi / 18998 km
Waitangi [Tuuta], CIT, NZ

Find:

   beyond  
but within

Other Information
Maps:
NOTAMs:
Links:
Sources:

  
flag of Italy
flag of Sicily
  

Airport Diagram

Airport diagram for PMO

Larger airport diagram (OBSOLETE) from NGA

Sectional Chart

Flight Planning
at skyvector.com

Satellite Image

Google Maps Satellite view

 

Copyright © 2004-2017 Karl L. Swartz. All rights reserved.
The Great Circle Mapper name and logo are trademarks of the Great Circle Mapper.
All other trademarks mentioned herein belong to their respective owners.
Please see credits for attibutions and further copyright information.

  Follow gcmap on Facebook Follow gcmap on Twitter Follow gcmap on Google+ GCmap on LinkedIn

hCard Microformat

Geo Microformat